• Join FlightAware (Why Join?)
  • Login
  • US Flag GB Flag 
17:57 EST


 

Airport Tracker/Info


-or-


 

Live Flight TrackerFlight Track Log ✈ AVN11 ✈ 17-Oct-2013 ✈ YSSY / SYD - NVVV / VLI

Flight Track Log - Related Links

Times and Time Zones

All times are in EDT time to prevent confusion due to time zone crossing. See the AVN11 flight status page for this flight to view local times or setup timezone preferences in your user account.

Time Position Orientation Groundspeed Altitude Reporting Facility
EDT Latitude Longitude Course Direction KTS MPH feet Rate Location/Type
21:13 -33.9649 151.1923 349° North 100 115  Level FlightAware ADS-B (YRAY)
21:14 -33.9525 151.1891 348° North 149 171 500 2,100 Climbing FlightAware ADS-B (YRAY)
21:14 -33.9389 151.1888 359° North 150 173 1,400 2,400 Climbing FlightAware ADS-B (YRAY)
21:14 -33.9329 151.1942 37° Northeast 179 206 1,700 2,100 Climbing FlightAware ADS-B (YRAY)
21:14 -33.9293 151.2040 66° East 195 224 2,100 2,100 Climbing FlightAware ADS-B (YRAY)
21:15 -33.9299 151.2154 93° East 206 237 2,400 1,800 Climbing FlightAware ADS-B (YRAY)
21:15 -33.9343 151.2262 116° Southeast 221 254 2,700 960 Climbing FlightAware ADS-B (YRAY)
21:15 -33.9423 151.2502 112° Southeast 246 283 2,900 780 Climbing FlightAware ADS-B (YRAY)
21:15 -33.9423 151.2631 90° East 253 291 3,100 1,560 Climbing FlightAware ADS-B (YRAY)
21:16 -33.9392 151.2931 83° East 271 312 3,700 1,380 Climbing FlightAware ADS-B (YRAY)
21:16 -33.9370 151.3201 84° East 298 343 4,000 1,920 Climbing FlightAware ADS-B (YRAY)
21:16 -33.9353 151.3618 87° East 331 381 5,000 1,500 Climbing FlightAware ADS-B
21:17 -33.9339 151.4153 88° East 347 399 5,300 1,140 Climbing FlightAware ADS-B
21:17 -33.9331 151.4526 88° East 357 411 5,900 2,580 Climbing FlightAware ADS-B
21:18 -33.9306 151.5253 88° East 353 406 7,700 3,120 Climbing Aus ATC (RADAR)
21:18 -33.9295 151.5527 88° East 357 411 8,600 2,880 Climbing FlightAware ADS-B
21:18 -33.9266 151.6143 87° East 357 411 9,900 2,340 Climbing FlightAware ADS-B
21:19 -33.9238 151.6783 87° East 375 432 11,000 2,280 Climbing Aus ATC (RADAR)
21:19 -33.9224 151.7027 87° East 394 453 11,500 2,580 Climbing FlightAware ADS-B
21:20 -33.9180 151.7950 87° East 399 459 13,300 2,340 Climbing FlightAware ADS-B
21:21 -33.9130 151.9070 87° East 425 489 15,200 2,280 Climbing FlightAware
21:21 -33.9100 151.9910 88° East 429 494 16,700 2,460 Climbing FlightAware
21:22 -33.9070 152.0610 87° East 431 496 17,900 2,460 Climbing FlightAware
21:22 -33.9070 152.1580 90° East 436 502 19,500 2,400 Climbing FlightAware
21:23 -33.9080 152.2430 91° East 437 503 20,900 2,040 Climbing FlightAware
21:24 -33.9080 152.3260 90° East 448 516 21,900 1,380 Climbing FlightAware
21:24 -33.9088 152.4153 90° East 450 518 22,400 1,380 Climbing Aus ATC (RADAR)
21:24 -33.9090 152.4210 90° East 464 534 22,800 1,860 Climbing FlightAware
21:25 -33.9090 152.4980 90° East 475 547 23,500 1,380 Climbing FlightAware
21:25 -33.9090 152.5930 90° East 483 556 24,300 1,320 Climbing FlightAware
21:26 -33.9077 152.6944 90° East 477 549 25,100 1,620 Climbing Aus ATC (RADAR)
21:26 -33.9010 152.7260 90° East 481 554 25,600 1,620 Climbing FlightAware
21:27 -33.8780 152.7970 69° East 476 548 26,300 1,260 Climbing FlightAware
21:27 -33.8460 152.8860 67° East 482 555 27,000 1,080 Climbing FlightAware
21:28 -33.8150 152.9740 67° East 489 563 27,600 1,020 Climbing FlightAware
21:28 -33.7850 153.0610 67° East 498 573 28,200 900 Climbing FlightAware
21:29 -33.7540 153.1500 67° East 502 578 28,700 960 Climbing FlightAware
21:30 -33.7090 153.2770 67° East 507 583 29,600 1,200 Climbing FlightAware
21:30 -33.6810 153.3560 67° East 505 581 30,400 1,380 Climbing FlightAware
21:31 -33.6430 153.4650 67° East 503 579 31,300 1,260 Climbing FlightAware
21:31 -33.6140 153.5450 66° East 502 578 32,000 1,200 Climbing FlightAware
21:32 -33.5810 153.6370 67° East 501 577 32,700 1,260 Climbing FlightAware
21:33 -33.5510 153.7200 67° East 495 570 33,500 1,140 Climbing FlightAware
21:33 -33.5196 153.8109 67° East 491 565 34,000 1,200 Climbing Aus ATC (RADAR)
21:33 -33.5230 153.8020 67° East 491 565 34,200 1,020 Climbing FlightAware
21:34 -33.4890 153.8981 67° East 488 562 34,600 1,140 Climbing Aus ATC (RADAR)
21:34 -33.4880 153.8990 67° East 489 563 34,900 120 Climbing FlightAware
21:34 -33.4484 154.0096 67° East 485 558 34,700 120 Descending Aus ATC (RADAR)
21:35 -33.4460 154.0140 67° East 491 565 35,000  Climbing FlightAware
21:35 -33.4112 154.1084 67° East 486 559 34,700  Descending Aus ATC (RADAR)
21:35 -33.4110 154.1090 67° East 490 564 35,000  Climbing FlightAware
21:36 -33.3693 154.2198 67° East 488 562 34,700  Descending Aus ATC (RADAR)
21:36 -33.3710 154.2160 67° East 493 567 35,000 300 Climbing FlightAware
21:37 -33.3260 154.3400 67° East 492 566 35,000  Level FlightAware
21:38 -33.2760 154.4750 66° East 492 566 35,000 -240 Level FlightAware
21:38 -33.2313 154.5734 66° East 471 542 34,700  Descending Aus ATC (RADAR)
21:38 -33.2330 154.5660 66° East 473 544 35,000 720 Climbing FlightAware
21:39 -33.1920 154.6010 36° Northeast 460 529 35,000  Level FlightAware
21:39 -33.1490 154.6350 34° Northeast 460 529 35,000  Level FlightAware
21:40 -33.0920 154.6790 33° Northeast 460 529 35,000  Level FlightAware
21:40 -33.0130 154.7490 37° Northeast 462 532 35,000  Level FlightAware
21:41 -32.9524 154.8088 37° Northeast 465 535 35,000  Level Aus ATC (RADAR)
21:41 -32.9460 154.8150 37° Northeast 463 533 35,000  Level FlightAware
21:42 -32.8860 154.8760 40° Northeast 461 531 35,000  Level FlightAware
21:43 -32.8160 154.9470 40° Northeast 462 532 35,000 720 Level FlightAware
21:43 -32.7560 155.0060 40° Northeast 460 529 36,000 1,140 Climbing FlightAware
21:44 -32.6830 155.0780 40° Northeast 462 532 36,400 480 Climbing FlightAware
21:44 -32.6330 155.1270 40° Northeast 465 535 36,600 360 Climbing FlightAware
21:45 -32.5753 155.1832 40° Northeast 467 537 36,800 180 Climbing Aus ATC (RADAR)
21:45 -32.5840 155.1750 40° Northeast 469 540 36,700 480 Descending FlightAware
21:45 -32.5190 155.2383 40° Northeast 457 526 37,100  Climbing Aus ATC (RADAR)
21:46 -32.5260 155.2300 40° Northeast 469 540 36,700 -600 Descending FlightAware
21:46 -32.4730 155.2810 39° Northeast 469 540 36,700 240 Level FlightAware
21:47 -32.4020 155.3530 41° Northeast 469 540 37,000 240 Climbing FlightAware
21:47 -32.3324 155.4201 41° Northeast 468 539 37,000  Level Aus ATC (RADAR)
21:47 -32.3350 155.4180 41° Northeast 466 536 37,000  Level FlightAware
21:48 -32.2780 155.4730 39° Northeast 466 536 37,000  Level FlightAware
21:49 -32.2260 155.5220 39° Northeast 466 536 37,000  Level FlightAware
21:49 -32.1750 155.5710 39° Northeast 466 536 37,000  Level FlightAware
21:50 -32.1220 155.6220 39° Northeast 466 536 37,000  Level FlightAware
21:50 -32.0710 155.6710 39° Northeast 466 536 37,000  Level FlightAware
21:51 -32.0200 155.7200 39° Northeast 466 536 37,000  Level FlightAware
21:52 -31.9046 155.8344 39° Northeast 450 518 37,000  Level Aus ATC (RADAR)
21:52 -31.9670 155.7700 39° Northeast 466 536 37,000  Level FlightAware
21:52 -31.8433 155.8928 39° Northeast 467 537 37,000  Level Aus ATC (RADAR)
21:52 -31.9160 155.8190 39° Northeast 466 536 37,000  Level FlightAware
21:53 -31.8650 155.8680 39° Northeast 466 536 37,000  Level FlightAware
21:53 -31.7256 156.0054 39° Northeast 469 540 37,000  Level Aus ATC (RADAR)
21:53 -31.8130 155.9170 39° Northeast 466 536 37,000  Level FlightAware
21:54 -31.7650 155.9630 39° Northeast 466 536 37,000  Level FlightAware
21:55 -31.7120 156.0130 39° Northeast 466 536 37,000  Level FlightAware
21:55 -31.6610 156.0620 39° Northeast 466 536 37,000  Level FlightAware
21:56 -31.6100 156.1100 39° Northeast 466 536 37,000  Level FlightAware
21:56 -31.5570 156.1600 39° Northeast 466 536 37,000  Level FlightAware
21:57 -31.5060 156.2090 39° Northeast 466 536 37,000 60 Level FlightAware
21:58 -31.2306 156.4756 39° Northeast 476 548 37,200 120 Climbing Aus ATC (RADAR)
21:59 -31.1792 156.5239 39° Northeast 476 548 37,200  Level Aus ATC (RADAR)
21:59 -31.1360 156.5643 39° Northeast 477 549 37,200  Level Aus ATC (RADAR)
22:00 -31.0757 156.6210 39° Northeast 478 550 37,200  Level Aus ATC (RADAR)
22:00 -30.9978 156.6935 39° Northeast 479 551 37,200  Level Aus ATC (RADAR)
22:01 -30.9373 156.7504 39° Northeast 479 551 37,200  Level Aus ATC (RADAR)
22:02 -30.8595 156.8235 39° Northeast 480 552 37,200  Level Aus ATC (RADAR)
22:02 -30.8162 156.8641 39° Northeast 480 552 37,200  Level Aus ATC (RADAR)
22:03 -30.7118 156.9612 39° Northeast 481 554 37,200  Level Aus ATC (RADAR)
22:04 -30.6511 157.0180 39° Northeast 482 555 37,200  Level Aus ATC (RADAR)
22:04 -30.6249 157.0423 39° Northeast 482 555 37,200  Level Aus ATC (RADAR)
22:05 -30.5642 157.0986 39° Northeast 480 552 37,200  Level Aus ATC (RADAR)
22:05 -30.4773 157.1787 38° Northeast 480 552 37,200  Level Aus ATC (RADAR)
22:06 -30.4169 157.2346 39° Northeast 478 550 37,200  Level Aus ATC (RADAR)
22:07 -30.3285 157.3156 38° Northeast 483 556 37,200  Level Aus ATC (RADAR)
22:07 -30.2847 157.3558 38° Northeast 483 556 37,200  Level Aus ATC (RADAR)
22:08 -30.1658 157.4648 38° Northeast 475 547 37,200  Level Aus ATC (RADAR)
22:09 -30.1096 157.5156 38° Northeast 522 601 37,200  Level Aus ATC (RADAR)
22:09 -30.0611 157.5593 38° Northeast 542 624 37,200  Level Aus ATC (RADAR)
22:10 -30.0075 157.6111 40° Northeast 478 550 37,200  Level Aus ATC (RADAR)
22:11 -29.9314 157.6823 39° Northeast 472 543 37,200  Level Aus ATC (RADAR)
22:11 -29.8596 157.7477 38° Northeast 480 552 37,200  Level Aus ATC (RADAR)
22:12 -29.7773 157.8216 38° Northeast 490 564 37,200  Level Aus ATC (RADAR)
22:12 -29.7318 157.8628 38° Northeast 492 566 37,200  Level Aus ATC (RADAR)
22:13 -29.6229 157.9609 38° Northeast 495 570 37,200  Level Aus ATC (RADAR)
22:14 -29.5779 158.0014 38° Northeast 494 568 37,200  Level Aus ATC (RADAR)
22:14 -29.5335 158.0414 38° Northeast 493 567 37,200  Level Aus ATC (RADAR)
22:15 -29.4982 158.0730 38° Northeast 491 565 37,200  Level Aus ATC (RADAR)
22:20 -28.9551 158.5569 41° Northeast 37,000 -60 Descending Aus ATC (Calculated)
22:22 -28.7763 158.7316 41° Northeast  Level Estimated
22:23 -28.6813 158.8241 41° Northeast  Level Estimated
22:24 -28.5862 158.9164 40° Northeast  Level Estimated
22:25 -28.4911 159.0086 40° Northeast  Level Estimated
22:25 -28.4297 159.0188 38° Northeast 37,000  Level Aus ATC (Calculated)
22:26 -28.2981 159.1336 40° Northeast 37,000  Level Aus ATC (Calculated)
22:28 -28.1714 159.2563 40° Northeast  Level Estimated
22:29 -28.0763 159.3481 40° Northeast  Level Estimated
22:30 -27.9811 159.4398 40° Northeast  Level Estimated
22:31 -27.8858 159.5313 40° Northeast  Level Estimated
22:31 -27.8381 159.6910 308° West 37,000  Level Aus ATC (Calculated)
22:32 -27.7905 159.6226 40° Northeast  Level Estimated
22:33 -27.7006 159.8207 40° Northeast  Level Estimated
22:34 -27.6047 159.9110 40° Northeast  Level Estimated
22:34 -27.6176 159.9555 40° Northeast 37,000  Level Aus ATC (Calculated)
22:35 -27.5214 160.0453 40° Northeast  Level Estimated
22:36 -27.4250 160.1349 40° Northeast  Level Estimated
22:36 -27.3362 160.2908 277° West 37,000  Level Aus ATC (Calculated)
22:37 -27.3286 160.2244 40° Northeast  Level Estimated
22:38 -27.2216 160.3958 39° Northeast  Level Estimated
22:38 -27.1905 160.4633 16° North 37,000  Level Aus ATC (Calculated)
22:39 -27.1247 160.4845 39° Northeast  Level Estimated
22:39 -27.0537 160.6247 46° Northeast 37,000  Level Aus ATC (Calculated)
22:40 -26.9895 160.7002 39° Northeast 37,000  Level Aus ATC (Calculated)
22:42 -26.8269 160.8461 39° Northeast  Level Estimated
22:42 -26.8027 160.9192 46° Northeast 37,000  Level Aus ATC (Calculated)
22:43 -26.7462 160.9852 38° Northeast 37,000  Level Aus ATC (Calculated)
22:44 -26.6487 161.0714 38° Northeast  Level Estimated
22:45 -26.5512 161.1575 38° Northeast  Level Estimated
22:45 -26.5270 161.2403 38° Northeast 37,000  Level Aus ATC (Calculated)
22:47 -26.3328 161.4096 38° Northeast  Level Estimated
22:48 -26.2348 161.4947 38° Northeast  Level Estimated
22:49 -26.1367 161.5797 38° Northeast  Level Estimated
22:50 -26.0386 161.6646 38° Northeast  Level Estimated
22:51 -25.9405 161.7493 38° Northeast  Level Estimated
22:52 -25.8423 161.8339 38° Northeast  Level Estimated
22:53 -25.7440 161.9183 38° Northeast  Level Estimated
22:54 -25.6457 162.0026 38° Northeast  Level Estimated
22:55 -25.5474 162.0867 38° Northeast  Level Estimated
22:55 -25.5141 162.4002 36° Northeast 37,000  Level Aus ATC (Calculated)
22:56 -25.4139 162.4816 36° Northeast  Level Estimated
22:57 -25.3138 162.5629 36° Northeast  Level Estimated
22:58 -25.2135 162.6440 36° Northeast  Level Estimated
22:59 -25.1133 162.7250 36° Northeast  Level Estimated
23:00 -25.0129 162.8059 36° Northeast  Level Estimated
23:01 -24.9126 162.8866 36° Northeast  Level Estimated
23:02 -24.8121 162.9673 36° Northeast  Level Estimated
23:03 -24.7117 163.0477 36° Northeast  Level Estimated
23:04 -24.6112 163.1281 36° Northeast  Level Estimated
23:05 -24.5107 163.2083 36° Northeast  Level Estimated
23:06 -24.4101 163.2884 36° Northeast  Level Estimated
23:07 -24.3095 163.3683 36° Northeast  Level Estimated
23:08 -24.2088 163.4482 36° Northeast  Level Estimated
23:09 -24.1081 163.5279 36° Northeast  Level Estimated
23:10 -24.0073 163.6075 36° Northeast  Level Estimated
23:11 -23.9065 163.6870 36° Northeast  Level Estimated
23:12 -23.8057 163.7663 36° Northeast  Level Estimated
23:13 -23.7048 163.8455 36° Northeast  Level Estimated
23:14 -23.6039 163.9246 36° Northeast  Level Estimated
23:15 -23.5030 164.0036 36° Northeast  Level Estimated
23:16 -23.4020 164.0824 36° Northeast  Level Estimated
23:17 -23.3010 164.1611 36° Northeast  Level Estimated
23:18 -23.1999 164.2397 36° Northeast  Level Estimated
23:19 -23.0988 164.3182 36° Northeast  Level Estimated
23:20 -22.9976 164.3966 36° Northeast  Level Estimated
23:21 -22.8959 164.4753 35° Northeast  Level Estimated
23:22 -22.7941 164.5539 35° Northeast  Level Estimated
23:23 -22.6923 164.6323 35° Northeast  Level Estimated
23:24 -22.5904 164.7107 35° Northeast  Level Estimated
23:25 -22.4885 164.7889 35° Northeast  Level Estimated
23:26 -22.3866 164.8670 35° Northeast  Level Estimated
23:27 -22.2846 164.9450 35° Northeast  Level Estimated
23:28 -22.1826 165.0229 35° Northeast  Level Estimated
23:29 -22.0805 165.1007 35° Northeast  Level Estimated
23:30 -21.9784 165.1783 35° Northeast  Level Estimated
23:31 -21.8763 165.2559 35° Northeast  Level Estimated
23:32 -21.7741 165.3333 35° Northeast  Level Estimated
23:33 -21.6719 165.4106 35° Northeast  Level Estimated
23:34 -21.5697 165.4879 35° Northeast  Level Estimated
23:35 -21.4674 165.5650 35° Northeast  Level Estimated
23:36 -21.3651 165.6420 35° Northeast  Level Estimated
23:37 -21.2628 165.7189 35° Northeast  Level Estimated
23:38 -21.1604 165.7957 35° Northeast  Level Estimated
23:39 -21.0580 165.8723 35° Northeast  Level Estimated
23:40 -20.9555 165.9489 35° Northeast  Level Estimated
23:41 -20.8530 166.0254 35° Northeast  Level Estimated
23:42 -20.7505 166.1017 35° Northeast  Level Estimated
23:43 -20.6480 166.1780 35° Northeast  Level Estimated
23:44 -20.5454 166.2542 35° Northeast  Level Estimated
23:45 -20.4428 166.3302 35° Northeast  Level Estimated
23:46 -20.3401 166.4062 35° Northeast  Level Estimated
23:47 -20.2374 166.4820 35° Northeast  Level Estimated
23:48 -20.1347 166.5578 35° Northeast  Level Estimated
23:49 -20.0320 166.6334 35° Northeast  Level Estimated
23:50 -19.9292 166.7090 35° Northeast  Level Estimated
23:51 -19.8264 166.7844 35° Northeast  Level Estimated
23:52 -19.7236 166.8598 35° Northeast  Level Estimated
23:53 -19.6207 166.9350 35° Northeast  Level Estimated
23:54 -19.5178 167.0102 35° Northeast  Level Estimated
23:55 -19.4149 167.0853 35° Northeast  Level Estimated
23:56 -19.3119 167.1602 35° Northeast  Level Estimated
23:57 -19.2089 167.2351 34° Northeast  Level Estimated
23:58 -19.1059 167.3099 34° Northeast  Level Estimated
23:59 -19.0028 167.3846 34° Northeast  Level Estimated
00:00 -18.8997 167.4592 34° Northeast  Level Estimated
00:01 -18.7966 167.5337 34° Northeast  Level Estimated
00:02 -18.6934 167.6081 34° Northeast  Level Estimated
00:03 -18.5903 167.6825 34° Northeast  Level Estimated
00:04 -18.4871 167.7567 34° Northeast  Level Estimated
00:05 -18.3838 167.8309 34° Northeast  Level Estimated
00:06 -18.2806 167.9049 34° Northeast  Level Estimated
00:07 -18.1773 167.9789 34° Northeast  Level Estimated
00:08 -18.0740 168.0528 34° Northeast  Level Estimated
00:09 -17.9706 168.1266 34° Northeast  Level Estimated
00:10 -17.8673 168.2003 34° Northeast  Level Estimated
00:11 -17.7638 168.2739 34° Northeast  Level Estimated
00:12 -17.6993 168.3198 34° Northeast  Level Estimated
00:13 -17.6993 168.3198 143° Southeast  Level Estimated
00:14 -17.6993 168.3198 37° Northeast  Level Estimated
00:15 -17.6993 168.3198 143° Southeast  Level Estimated
00:16 -17.6993 168.3198 37° Northeast  Level Estimated
00:17 -17.6993 168.3198 143° Southeast  Level Estimated
00:18 -17.6993 168.3198 37° Northeast  Level Estimated
00:19 -17.6993 168.3198 143° Southeast  Level Estimated
00:20 -17.6993 168.3198 37° Northeast  Level Estimated
00:21 -17.6993 168.3198 143° Southeast  Level Estimated
00:22 -17.6993 168.3198 37° Northeast  Level Estimated
00:23 -17.6993 168.3198 143° Southeast  Level Estimated
00:24 -17.6993 168.3198 37° Northeast  Level Estimated
00:25 -17.6993 168.3198 143° Southeast  Level Estimated
00:26 -17.6993 168.3198 37° Northeast  Level Estimated
00:27 -17.6993 168.3198 143° Southeast  Level Estimated
00:28 -17.6993 168.3198 37° Northeast  Level Estimated